createdAt,value
2022-09-30T00:01:40.663Z,27.10
2022-09-30T00:05:48.221Z,32.00
2022-09-30T00:09:55.983Z,26.70
2022-09-30T00:14:05.246Z,24.40
2022-09-30T00:18:12.731Z,25.50
2022-09-30T00:22:20.969Z,28.70
2022-09-30T00:26:29.595Z,25.60
2022-09-30T00:30:37.795Z,23.40
2022-09-30T00:34:49.987Z,23.50
2022-09-30T00:38:57.775Z,22.20
2022-09-30T00:43:07.471Z,25.90
2022-09-30T00:47:34.682Z,23.60
2022-09-30T00:51:46.411Z,38.00
2022-09-30T00:55:58.312Z,33.10
2022-09-30T01:00:08.271Z,34.50
2022-09-30T01:04:17.406Z,32.60
2022-09-30T01:08:26.000Z,34.00
2022-09-30T01:12:33.524Z,31.30
2022-09-30T01:16:57.588Z,28.80
2022-09-30T01:21:26.855Z,29.70
2022-09-30T01:25:56.515Z,26.10
2022-09-30T01:30:11.623Z,24.40
2022-09-30T01:34:25.270Z,23.30
2022-09-30T01:38:37.912Z,28.10
2022-09-30T01:42:50.841Z,28.00
2022-09-30T01:47:03.630Z,28.30
2022-09-30T01:51:16.428Z,21.80
2022-09-30T01:55:26.445Z,25.00
2022-09-30T01:59:37.695Z,25.40
2022-09-30T02:03:49.169Z,24.90
2022-09-30T02:07:59.626Z,23.80
2022-09-30T02:12:12.281Z,24.70
2022-09-30T02:16:24.890Z,23.70
2022-09-30T02:20:36.449Z,21.40
2022-09-30T02:24:46.311Z,26.20
2022-09-30T02:28:59.401Z,24.60
2022-09-30T02:33:13.669Z,23.10
2022-09-30T02:37:29.112Z,22.20
2022-09-30T02:41:42.366Z,24.50
2022-09-30T02:45:53.040Z,21.10
2022-09-30T02:50:07.285Z,25.60
2022-09-30T02:54:21.963Z,23.10
2022-09-30T02:58:31.645Z,24.20
2022-09-30T03:02:39.245Z,21.80
2022-09-30T03:06:46.477Z,23.90
2022-09-30T03:10:55.810Z,24.50
2022-09-30T03:15:28.971Z,24.00
2022-09-30T03:19:46.782Z,25.50
2022-09-30T03:24:27.434Z,23.50
2022-09-30T03:28:40.369Z,22.00
2022-09-30T03:33:05.431Z,22.40
2022-09-30T03:37:19.864Z,22.30
2022-09-30T03:41:32.425Z,23.10
2022-09-30T03:45:47.029Z,22.70
2022-09-30T03:49:57.516Z,27.20
2022-09-30T03:54:06.535Z,23.40
2022-09-30T03:58:14.254Z,23.30
2022-09-30T04:02:23.066Z,20.60
2022-09-30T04:06:31.290Z,23.60
2022-09-30T04:10:40.225Z,27.90
2022-09-30T04:14:48.325Z,30.60
2022-09-30T04:18:56.918Z,29.40
2022-09-30T04:23:04.492Z,30.30
2022-09-30T04:27:12.184Z,27.80
2022-09-30T04:31:20.908Z,27.10
2022-09-30T04:35:30.249Z,27.90
2022-09-30T04:39:38.492Z,26.40
2022-09-30T04:43:47.116Z,26.40
2022-09-30T04:47:55.114Z,26.90
2022-09-30T04:52:03.300Z,27.20
2022-09-30T04:56:11.854Z,28.90
2022-09-30T05:00:20.675Z,32.60
2022-09-30T05:04:28.695Z,32.60
2022-09-30T05:08:36.588Z,30.40
2022-09-30T05:12:45.507Z,30.20
2022-09-30T05:16:54.739Z,30.50
2022-09-30T05:21:04.981Z,27.20
2022-09-30T05:25:13.630Z,30.60
2022-09-30T05:29:21.708Z,33.20
2022-09-30T05:33:31.018Z,32.90
2022-09-30T05:37:39.195Z,28.40
2022-09-30T05:41:47.343Z,28.20
2022-09-30T05:45:58.636Z,27.50
2022-09-30T05:50:08.031Z,28.40
2022-09-30T05:54:15.449Z,27.80
2022-09-30T05:58:24.099Z,30.30
2022-09-30T06:02:31.690Z,30.70
2022-09-30T06:06:39.539Z,33.40
2022-09-30T06:10:47.948Z,26.60
2022-09-30T06:14:56.012Z,29.90
2022-09-30T06:19:03.678Z,29.50
2022-09-30T06:23:11.135Z,30.20
2022-09-30T06:27:18.449Z,29.60
2022-09-30T06:31:29.555Z,28.90
2022-09-30T06:35:36.863Z,27.70
2022-09-30T06:39:44.363Z,32.60
2022-09-30T06:43:52.230Z,28.40
2022-09-30T06:48:01.656Z,29.60
2022-09-30T06:52:14.029Z,29.70
2022-09-30T06:56:21.597Z,26.30
2022-09-30T07:00:31.111Z,27.70
2022-09-30T07:04:38.307Z,25.20
2022-09-30T07:08:45.922Z,27.40
2022-09-30T07:12:55.564Z,28.30
2022-09-30T07:17:04.360Z,30.30
2022-09-30T07:21:13.799Z,29.40
2022-09-30T07:25:21.887Z,27.60
2022-09-30T07:29:40.361Z,26.20
2022-09-30T07:33:58.005Z,27.00
2022-09-30T07:38:05.460Z,29.70
2022-09-30T07:42:13.294Z,28.90
2022-09-30T07:46:30.183Z,28.10
2022-09-30T07:50:37.802Z,26.50
2022-09-30T07:54:50.387Z,26.60
2022-09-30T07:59:00.820Z,26.00
2022-09-30T08:03:09.134Z,23.80
2022-09-30T08:07:17.350Z,26.60
2022-09-30T08:11:26.191Z,26.80
2022-09-30T08:15:33.913Z,26.10
2022-09-30T08:19:45.065Z,27.00
2022-09-30T08:23:53.626Z,26.30
2022-09-30T08:28:02.277Z,25.30
2022-09-30T08:32:11.234Z,27.70
2022-09-30T08:36:20.536Z,29.30
2022-09-30T08:40:31.041Z,28.90
2022-09-30T08:44:45.392Z,27.10
2022-09-30T08:48:59.801Z,25.90
2022-09-30T08:53:17.093Z,27.50
2022-09-30T08:57:25.152Z,30.90
2022-09-30T09:01:35.960Z,28.70
2022-09-30T09:05:54.307Z,29.70
2022-09-30T09:10:09.916Z,28.70
2022-09-30T09:14:28.161Z,30.20
2022-09-30T09:18:45.988Z,32.60
2022-09-30T09:22:54.411Z,33.10
2022-09-30T09:27:02.280Z,31.90
2022-09-30T09:31:17.282Z,30.00
2022-09-30T09:35:34.961Z,33.10
2022-09-30T09:40:03.604Z,32.50
2022-09-30T09:44:19.142Z,32.00
2022-09-30T09:48:27.032Z,31.90
2022-09-30T09:53:15.260Z,33.90
2022-09-30T09:57:28.007Z,40.60
2022-09-30T10:01:38.069Z,34.60
2022-09-30T10:05:47.864Z,34.10
2022-09-30T10:10:10.070Z,35.40
2022-09-30T10:14:20.488Z,33.20
2022-09-30T10:18:30.614Z,33.10
2022-09-30T10:22:39.215Z,33.40
2022-09-30T10:26:49.165Z,33.20
2022-09-30T10:31:00.082Z,32.50
2022-09-30T10:35:17.029Z,35.10
2022-09-30T10:39:26.964Z,34.00
2022-09-30T10:43:38.743Z,36.80
2022-09-30T10:47:50.788Z,34.20
2022-09-30T10:52:05.317Z,34.70
2022-09-30T10:56:13.276Z,32.00
2022-09-30T11:00:22.908Z,33.60
2022-09-30T11:04:34.703Z,31.10
2022-09-30T11:08:49.064Z,30.90
2022-09-30T11:13:01.810Z,29.40
2022-09-30T11:17:22.463Z,30.00
2022-09-30T11:21:35.058Z,27.20
2022-09-30T11:25:47.174Z,29.40
2022-09-30T11:30:06.080Z,27.90
2022-09-30T11:34:30.501Z,24.20
2022-09-30T11:39:03.449Z,23.90
2022-09-30T11:43:34.148Z,23.30
2022-09-30T11:48:06.183Z,24.80
2022-09-30T11:52:20.497Z,20.10
2022-09-30T11:56:36.500Z,19.30
2022-09-30T12:00:47.378Z,14.90
2022-09-30T12:05:00.841Z,17.80
2022-09-30T12:09:16.287Z,16.20
2022-09-30T12:13:27.118Z,16.10
2022-09-30T12:17:38.596Z,16.80
2022-09-30T12:21:51.484Z,16.60
2022-09-30T12:26:00.625Z,14.90
2022-09-30T12:30:18.962Z,16.30
2022-09-30T12:34:36.114Z,14.50
2022-09-30T12:38:59.087Z,13.70
2022-09-30T12:43:17.219Z,13.30
2022-09-30T12:47:31.812Z,16.50
2022-09-30T12:51:45.750Z,15.70
2022-09-30T12:55:53.852Z,15.00
2022-09-30T13:00:08.849Z,13.70
2022-09-30T13:04:33.387Z,15.10
2022-09-30T13:08:48.707Z,16.70
2022-09-30T13:13:23.915Z,13.20
2022-09-30T13:17:31.345Z,14.50
2022-09-30T13:21:39.570Z,13.50
2022-09-30T13:25:58.414Z,16.00
2022-09-30T13:30:37.608Z,14.80
2022-09-30T13:34:58.736Z,11.40
2022-09-30T13:39:21.734Z,11.60
2022-09-30T13:43:32.129Z,12.20
2022-09-30T13:47:44.750Z,10.80
2022-09-30T13:51:53.016Z,8.90
2022-09-30T13:56:02.215Z,9.40
2022-09-30T14:00:16.553Z,11.20
2022-09-30T14:05:01.156Z,10.80
2022-09-30T14:09:29.963Z,10.70
2022-09-30T14:13:51.355Z,10.40
2022-09-30T14:18:42.682Z,10.80
2022-09-30T14:22:52.145Z,10.20
2022-09-30T14:27:16.164Z,10.70
2022-09-30T14:31:25.125Z,9.30
2022-09-30T14:35:34.665Z,9.60
2022-09-30T14:39:43.536Z,10.40
2022-09-30T14:43:53.965Z,8.80
2022-09-30T14:48:04.540Z,9.40
2022-09-30T14:52:39.742Z,7.60
2022-09-30T14:56:47.547Z,9.60
2022-09-30T15:01:02.682Z,9.00
2022-09-30T15:05:15.960Z,8.00
2022-09-30T15:09:33.043Z,9.70
2022-09-30T15:13:41.652Z,12.20
2022-09-30T15:17:52.160Z,8.60
2022-09-30T15:22:03.353Z,8.40
2022-09-30T15:26:13.785Z,11.70
2022-09-30T15:30:29.520Z,20.40
2022-09-30T15:34:37.535Z,11.80
2022-09-30T15:38:51.304Z,11.00
2022-09-30T15:43:03.211Z,10.00
2022-09-30T15:47:12.337Z,9.60
2022-09-30T15:51:39.294Z,10.70
2022-09-30T15:55:48.621Z,9.40
2022-09-30T16:00:04.790Z,12.50
2022-09-30T16:04:25.076Z,12.90
2022-09-30T16:08:33.473Z,10.20
2022-09-30T16:12:41.436Z,9.90
2022-09-30T16:16:56.037Z,9.80
2022-09-30T16:21:05.950Z,12.00
2022-09-30T16:25:18.581Z,10.10
2022-09-30T16:29:27.473Z,8.70
2022-09-30T16:33:36.163Z,9.90
2022-09-30T16:37:44.719Z,11.60
2022-09-30T16:41:54.702Z,9.50
2022-09-30T16:46:02.395Z,9.20
2022-09-30T16:50:20.456Z,10.00
2022-09-30T16:54:28.125Z,9.90
2022-09-30T16:58:35.970Z,11.80
2022-09-30T17:02:43.801Z,12.10
2022-09-30T17:06:51.503Z,11.20
2022-09-30T17:10:59.374Z,11.30
2022-09-30T17:15:08.162Z,9.40
2022-09-30T17:19:16.987Z,10.50
2022-09-30T17:23:25.905Z,13.10
2022-09-30T17:27:34.548Z,12.50
2022-09-30T17:31:43.244Z,17.90
2022-09-30T17:36:01.770Z,13.50
2022-09-30T17:40:25.167Z,16.00
2022-09-30T17:44:33.437Z,25.50
2022-09-30T17:48:42.984Z,22.00
2022-09-30T17:52:50.676Z,21.50
2022-09-30T17:56:58.640Z,20.80
2022-09-30T18:01:11.649Z,20.00
2022-09-30T18:05:19.986Z,21.70
2022-09-30T18:09:29.365Z,18.50
2022-09-30T18:13:37.184Z,20.10
2022-09-30T18:17:44.893Z,22.80
2022-09-30T18:21:52.379Z,20.80
2022-09-30T18:26:01.432Z,21.00
2022-09-30T18:30:14.930Z,22.00
2022-09-30T18:34:24.141Z,21.90
2022-09-30T18:38:32.295Z,25.10
2022-09-30T18:42:40.958Z,22.60
2022-09-30T18:46:48.574Z,21.90
2022-09-30T18:50:56.871Z,26.10
2022-09-30T18:55:04.745Z,26.80
2022-09-30T18:59:18.376Z,25.60
2022-09-30T19:03:31.996Z,27.90
2022-09-30T19:07:40.158Z,26.60
2022-09-30T19:11:49.992Z,25.90
2022-09-30T19:16:03.744Z,23.90
2022-09-30T19:20:12.786Z,25.10
2022-09-30T19:24:24.097Z,27.00
2022-09-30T19:28:38.897Z,27.30
2022-09-30T19:32:46.263Z,26.40
2022-09-30T19:36:58.693Z,25.50
2022-09-30T19:41:07.795Z,26.40
2022-09-30T19:45:16.580Z,24.10
2022-09-30T19:49:24.228Z,24.60
2022-09-30T19:53:32.293Z,23.60
2022-09-30T19:57:43.261Z,27.70
2022-09-30T20:01:50.904Z,25.80
2022-09-30T20:06:04.240Z,26.10
2022-09-30T20:10:12.650Z,26.50
2022-09-30T20:14:38.025Z,30.20
2022-09-30T20:18:46.146Z,29.70
2022-09-30T20:22:53.999Z,29.90
2022-09-30T20:27:01.753Z,27.90
2022-09-30T20:31:11.318Z,28.30
2022-09-30T20:35:18.956Z,24.90
2022-09-30T20:39:26.745Z,26.50
2022-09-30T20:43:35.918Z,27.70
2022-09-30T20:47:47.409Z,28.30
2022-09-30T20:51:55.305Z,28.00
2022-09-30T20:56:04.650Z,26.60
2022-09-30T21:00:16.370Z,25.60
2022-09-30T21:04:24.227Z,26.50
2022-09-30T21:08:32.163Z,25.10
2022-09-30T21:12:39.672Z,26.90
2022-09-30T21:16:47.494Z,30.40
2022-09-30T21:20:59.926Z,25.30
2022-09-30T21:25:09.552Z,29.20
2022-09-30T21:29:18.257Z,26.20
2022-09-30T21:33:26.891Z,27.40
2022-09-30T21:37:34.963Z,28.30
2022-09-30T21:41:44.805Z,26.50
2022-09-30T21:45:59.855Z,25.70
2022-09-30T21:50:09.142Z,27.40
2022-09-30T21:54:19.587Z,27.80
2022-09-30T21:58:28.565Z,28.20
2022-09-30T22:02:36.939Z,27.80
2022-09-30T22:06:45.542Z,28.30
2022-09-30T22:10:53.875Z,42.30
2022-09-30T22:15:01.552Z,27.50
2022-09-30T22:19:10.226Z,26.40
2022-09-30T22:23:18.171Z,27.50
2022-09-30T22:27:26.174Z,27.10
2022-09-30T22:31:34.942Z,28.30
2022-09-30T22:36:00.664Z,26.30
2022-09-30T22:40:10.021Z,27.60
2022-09-30T22:44:18.096Z,26.20
2022-09-30T22:48:27.748Z,26.70
2022-09-30T22:52:36.312Z,27.80
2022-09-30T22:56:44.134Z,28.10
2022-09-30T23:00:58.928Z,29.70
2022-09-30T23:05:08.544Z,26.70
2022-09-30T23:09:17.322Z,27.10
2022-09-30T23:13:26.450Z,29.30
2022-09-30T23:17:35.908Z,29.30
2022-09-30T23:21:43.573Z,29.90
2022-09-30T23:25:52.759Z,28.30
2022-09-30T23:30:00.424Z,28.70
2022-09-30T23:34:08.728Z,30.50
2022-09-30T23:38:17.963Z,29.50
2022-09-30T23:42:26.990Z,30.80
2022-09-30T23:46:35.528Z,29.10
2022-09-30T23:50:43.879Z,30.00
2022-09-30T23:54:51.907Z,27.80
2022-09-30T23:59:00.204Z,29.80
